• Join FlightAware (Why Join?)
  • Login
  • US Flag 
06:20PM EDT


 

Airport Tracker/Info


-or-


 

Live Flight TrackerFlight Track Log ✈ AWE1963 ✈ 31-Jul-2013 ✈ KCLT - MDPC / PUJ

Flight Track Log - Related Links

Times and Time Zones

All times are in EDT time to prevent confusion due to time zone crossing. See the AWE1963 flight status page for this flight to view local times or setup timezone preferences in your user account.

Time Position Orientation Groundspeed Altitude Reporting Facility
EDT Latitude Longitude Course Direction KTS MPH feet Rate Location/Type
08:22AM 35.1886 -80.9358 202° Southwest 171 197 1,800  Level Atlanta Center
08:23AM 35.1406 -80.9300 174° South 191 220 2,900 1,560 Climbing Atlanta Center
08:24AM 35.0672 -80.9150 170° South 283 326 4,900 2,100 Climbing Atlanta Center
08:25AM 34.8429 -80.6080 180° South  Level Estimated
08:25AM 35.0233 -80.9114 176° South 292 336 6,100  Level Atlanta Center
08:26AM 34.7500 -80.5232 180° South  Level Estimated
08:27AM 34.6571 -80.4387 175° South  Level Estimated
08:27AM 34.8681 -80.9039 178° South 291 335 10,900  Level Jacksonville Center
08:28AM 34.5495 -80.4916 202° Southwest  Level FlightAware Approximate
08:28AM 34.7742 -80.9036 180° South 318 366 12,700  Level Jacksonville Center
08:29AM 34.6719 -80.9008 179° South 352 405 14,300 1,680 Climbing Jacksonville Center
08:30AM 34.5653 -80.8881 174° South 384 442 16,100 1,740 Climbing Jacksonville Center
08:31AM 34.4525 -80.8781 176° South 398 458 17,800 1,560 Climbing Jacksonville Center
08:32AM 34.3356 -80.8633 174° South 411 473 19,300 1,320 Climbing Jacksonville Center
08:33AM 34.2247 -80.8483 174° South 418 481 20,500 1,380 Climbing Jacksonville Center
08:34AM 34.1056 -80.8311 173° South 418 481 22,100 1,800 Climbing Jacksonville Center
08:35AM 33.9986 -80.8136 172° South 434 499 24,200 2,460 Climbing Jacksonville Center
08:36AM 33.8978 -80.7658 159° South 423 487 27,100 1,800 Climbing Jacksonville Center
08:37AM 33.8292 -80.6575 127° Southeast 359 413 27,900 600 Climbing Jacksonville Center
08:38AM 33.7686 -80.5392 122° Southeast 378 435 28,400 600 Climbing Jacksonville Center
08:39AM 33.7036 -80.4161 122° Southeast 415 478 29,100 600 Climbing Jacksonville Center
08:40AM 33.6322 -80.2883 124° Southeast 441 507 29,700 480 Climbing Jacksonville Center
08:41AM 33.5625 -80.1583 123° Southeast 456 525 30,100 360 Climbing Jacksonville Center
08:42AM 33.4886 -80.0211 123° Southeast 469 540 30,500 600 Climbing Jacksonville Center
08:43AM 33.4144 -79.8842 123° Southeast 483 556 31,400 900 Climbing Jacksonville Center
08:44AM 33.3381 -79.7475 124° Southeast 488 562 32,400 900 Climbing Jacksonville Center
08:45AM 33.2636 -79.6111 123° Southeast 488 562 33,300 900 Climbing Jacksonville Center
08:46AM 33.1892 -79.4797 124° Southeast 488 562 34,200 720 Climbing Jacksonville Center
08:47AM 33.1125 -79.3439 124° Southeast 488 562 34,800 360 Climbing Jacksonville Center
08:48AM 33.0378 -79.2106 124° Southeast 488 562 35,000 60 Climbing Jacksonville Center
08:49AM 32.9650 -79.0822 124° Southeast 481 554 35,000  Level Jacksonville Center
08:50AM 32.8900 -78.9494 124° Southeast 476 548 35,000  Level Jacksonville Center
08:51AM 32.8150 -78.8192 124° Southeast 476 548 35,000  Level Jacksonville Center
08:52AM 32.7417 -78.6892 124° Southeast 476 548 35,000  Level Jacksonville Center
08:53AM 32.6686 -78.5619 124° Southeast 476 548 35,000  Level Jacksonville Center
08:54AM 32.5997 -78.4419 124° Southeast 476 548 35,000 120 Level Jacksonville Center
08:55AM 32.5264 -78.3150 124° Southeast 476 548 35,300 420 Climbing Jacksonville Center
08:56AM 32.4528 -78.1881 124° Southeast 471 542 35,900 660 Climbing Jacksonville Center
08:57AM 32.3722 -78.0447 124° Southeast 483 556 36,700 540 Climbing Jacksonville Center
08:58AM 32.2964 -77.9161 125° Southeast 478 550 37,000 60 Climbing Jacksonville Center
08:59AM 32.2128 -77.8103 133° Southeast 469 540 36,900  Descending Jacksonville Center
09:00AM 32.1011 -77.7306 149° Southeast 455 524 37,000  Climbing Jacksonville Center
09:01AM 31.9872 -77.6561 151° Southeast 465 535 37,000  Level Jacksonville Center
09:02AM 31.8697 -77.5894 154° Southeast 465 535 37,000  Level Jacksonville Center
09:03AM 31.7522 -77.5278 156° South 465 535 37,000  Level Jacksonville Center
09:04AM 31.6367 -77.4589 153° Southeast 465 535 37,000 -60 Level Jacksonville Center
09:05AM 31.5344 -77.3650 142° Southeast 465 535 36,900 -60 Descending Jacksonville Center
09:06AM 31.4361 -77.2614 138° Southeast 465 535 36,900  Level Jacksonville Center
09:07AM 31.3336 -77.1653 141° Southeast 465 535 37,000  Climbing Jacksonville Center
09:08AM 31.2431 -77.0519 133° Southeast 465 535 37,000 -60 Level Jacksonville Center
09:09AM 31.1567 -76.9456 133° Southeast 471 542 36,900  Descending Jacksonville Center
09:10AM 31.3500 -77.0000 140° Southeast 448 516 37,000  Climbing New York Oceanic (ODAPS)
09:17AM 30.3881 -76.0796 141° Southeast 448 516 37,000  Level FlightAware Transoceanic
09:18AM 30.2915 -75.9885 141° Southeast 448 516 37,000  Level FlightAware Transoceanic
09:19AM 30.1949 -75.8977 141° Southeast 448 516 37,000  Level FlightAware Transoceanic
09:20AM 30.0982 -75.8070 141° Southeast 448 516 37,000  Level FlightAware Transoceanic
09:21AM 30.0015 -75.7165 141° Southeast 448 516 37,000  Level FlightAware Transoceanic
09:22AM 29.9047 -75.6261 141° Southeast 448 516 37,000  Level FlightAware Transoceanic
09:23AM 29.8078 -75.5360 141° Southeast 448 516 37,000  Level FlightAware Transoceanic
09:24AM 29.7109 -75.4460 141° Southeast 448 516 37,000  Level FlightAware Transoceanic
09:25AM 29.6139 -75.3562 141° Southeast 448 516 37,000  Level FlightAware Transoceanic
09:26AM 29.5169 -75.2666 141° Southeast 448 516 37,000  Level FlightAware Transoceanic
09:27AM 29.4198 -75.1771 141° Southeast 448 516 37,000  Level FlightAware Transoceanic
09:28AM 29.3226 -75.0878 141° Southeast 448 516 37,000  Level FlightAware Transoceanic
09:29AM 29.2254 -74.9987 141° Southeast 448 516 37,000  Level FlightAware Transoceanic
09:30AM 29.1281 -74.9098 141° Southeast 448 516 37,000  Level FlightAware Transoceanic
09:31AM 29.0308 -74.8210 141° Southeast 448 516 37,000  Level FlightAware Transoceanic
09:32AM 28.9334 -74.7324 142° Southeast 448 516 37,000  Level FlightAware Transoceanic
09:33AM 28.8359 -74.6439 142° Southeast 448 516 37,000  Level FlightAware Transoceanic
09:34AM 28.7384 -74.5556 142° Southeast 448 516 37,000  Level FlightAware Transoceanic
09:35AM 28.6408 -74.4675 142° Southeast 448 516 37,000  Level FlightAware Transoceanic
09:36AM 28.5432 -74.3795 142° Southeast 448 516 37,000  Level FlightAware Transoceanic
09:37AM 28.4455 -74.2918 142° Southeast 448 516 37,000  Level FlightAware Transoceanic
09:38AM 28.3478 -74.2041 142° Southeast 448 516 37,000  Level FlightAware Transoceanic
09:39AM 28.2500 -74.1167 149° Southeast 448 516 37,000  Level FlightAware Transoceanic
09:40AM 28.1422 -74.0441 149° Southeast 448 516 37,000  Level FlightAware Transoceanic
09:40AM 28.2500 -74.1167 149° Southeast 450 518 37,000  Level New York Oceanic (ODAPS)
09:41AM 28.0343 -73.9717 149° Southeast 448 516 37,000  Level FlightAware Transoceanic
09:42AM 27.9265 -73.8994 149° Southeast 448 516 37,000  Level FlightAware Transoceanic
09:43AM 27.8185 -73.8273 149° Southeast 448 516 37,000  Level FlightAware Transoceanic
09:44AM 27.7106 -73.7553 149° Southeast 448 516 37,000  Level FlightAware Transoceanic
09:45AM 27.6026 -73.6835 150° Southeast 448 516 37,000  Level FlightAware Transoceanic
09:46AM 27.3864 -73.5403 150° Southeast 450 518 37,000  Level FlightAware Transoceanic
09:47AM 27.2783 -73.4689 150° Southeast 450 518 37,000  Level FlightAware Transoceanic
09:48AM 27.1702 -73.3976 150° Southeast 450 518 37,000  Level FlightAware Transoceanic
09:49AM 27.0620 -73.3265 150° Southeast 450 518 37,000  Level FlightAware Transoceanic
09:50AM 26.9538 -73.2555 150° Southeast 450 518 37,000  Level FlightAware Transoceanic
09:51AM 26.8455 -73.1846 150° Southeast 450 518 37,000  Level FlightAware Transoceanic
09:52AM 26.7372 -73.1139 150° Southeast 450 518 37,000  Level FlightAware Transoceanic
09:53AM 26.6289 -73.0433 150° Southeast 450 518 37,000  Level FlightAware Transoceanic
09:54AM 26.5206 -72.9728 150° Southeast 450 518 37,000  Level FlightAware Transoceanic
09:55AM 26.4122 -72.9025 150° Southeast 450 518 37,000  Level FlightAware Transoceanic
09:56AM 26.3037 -72.8323 150° Southeast 450 518 37,000  Level FlightAware Transoceanic
09:57AM 26.1953 -72.7623 150° Southeast 450 518 37,000  Level FlightAware Transoceanic
09:58AM 26.0868 -72.6923 150° Southeast 450 518 37,000  Level FlightAware Transoceanic
09:59AM 25.9783 -72.6225 150° Southeast 450 518 37,000  Level FlightAware Transoceanic
10:00AM 25.8697 -72.5528 150° Southeast 450 518 37,000  Level FlightAware Transoceanic
10:01AM 25.7611 -72.4833 150° Southeast 450 518 37,000  Level FlightAware Transoceanic
10:01AM 25.7892 -72.5644 150° Southeast 451 519 37,000  Level Miami Center
10:02AM 25.6525 -72.4139 150° Southeast 450 518 37,000  Level FlightAware Transoceanic
10:02AM 25.6764 -72.4922 150° Southeast 458 527 37,000  Level Miami Center
10:03AM 25.5438 -72.3446 150° Southeast 450 518 37,000  Level FlightAware Transoceanic
10:03AM 25.5719 -72.4269 151° Southeast 451 519 37,000  Level Miami Center
10:04AM 25.4351 -72.2754 150° Southeast 450 518 37,000  Level FlightAware Transoceanic
10:04AM 25.4633 -72.3575 150° Southeast 445 512 37,000  Level Miami Center
10:05AM 25.3264 -72.2064 150° Southeast 450 518 37,000  Level FlightAware Transoceanic
10:05AM 25.3567 -72.2856 149° Southeast 451 519 37,000  Level Miami Center
10:06AM 25.2176 -72.1375 150° Southeast 450 518 37,000  Level FlightAware Transoceanic
10:06AM 25.2481 -72.2161 150° Southeast 458 527 37,000  Level Miami Center
10:07AM 25.1492 -72.1306 142° Southeast 453 521 37,000  Level Miami Center
10:08AM 25.0483 -72.0403 141° Southeast 454 522 37,000  Level Miami Center
10:09AM 24.9639 -71.9497 136° Southeast 449 517 37,000  Level Miami Center
10:10AM 24.8789 -71.8456 132° Southeast 444 511 37,100 120 Climbing Miami Center
10:11AM 24.7939 -71.7417 132° Southeast 450 518 37,300 300 Climbing Miami Center
10:12AM 24.7003 -71.6314 133° Southeast 450 518 37,700 300 Climbing Miami Center
10:13AM 24.6236 -71.5364 132° Southeast 455 524 38,000 120 Climbing Miami Center
10:14AM 24.5403 -71.4258 130° Southeast 463 533 38,000  Level Miami Center
10:15AM 24.4572 -71.3267 133° Southeast 463 533 38,000  Level Miami Center
10:16AM 24.3675 -71.2144 131° Southeast 448 516 38,000  Level Miami Center
10:17AM 24.2819 -71.1069 131° Southeast 454 522 38,000  Level Miami Center
10:18AM 24.1967 -71.0061 133° Southeast 457 526 38,000  Level Miami Center
10:19AM 24.1031 -70.9128 138° Southeast 462 532 38,100  Climbing Miami Center
10:20AM 23.9883 -70.8636 159° South 444 511 38,100 -60 Level Miami Center
10:21AM 23.8703 -70.8283 165° South 431 496 38,000 -60 Descending Miami Center
10:22AM 23.7561 -70.7931 164° South 433 498 38,000  Level Miami Center
10:23AM 23.6400 -70.7622 166° South 433 498 38,000  Level Miami Center
10:24AM 23.5236 -70.7250 164° South 433 498 38,000  Level Miami Center
10:25AM 23.4033 -70.6922 166° South 439 505 38,000  Level Miami Center
10:26AM 23.2850 -70.6550 164° South 444 511 38,100  Climbing Miami Center
10:27AM 23.1647 -70.6225 166° South 444 511 38,000 -60 Descending Miami Center
10:28AM 23.0464 -70.5856 164° South 440 506 38,000  Level Miami Center
10:29AM 22.9281 -70.5506 165° South 440 506 38,000  Level Miami Center
10:30AM 22.8056 -70.5139 165° South 447 514 38,000  Level Miami Center
10:31AM 22.6808 -70.4750 164° South 453 521 38,000  Level Miami Center
10:32AM 22.5606 -70.4428 166° South 459 528 38,100  Climbing Miami Center
10:33AM 22.4400 -70.4061 164° South 459 528 38,000 -60 Descending Miami Center
10:34AM 22.3175 -70.3694 165° South 459 528 38,000  Level Miami Center
10:35AM 22.1950 -70.3353 166° South 459 528 38,000  Level Miami Center
10:36AM 22.0725 -70.2986 164° South 459 528 38,000  Level Miami Center
10:37AM 21.9522 -70.2644 165° South 459 528 38,000  Level Miami Center
10:38AM 21.8319 -70.2303 165° South 459 528 38,000  Level Miami Center
10:39AM 21.7072 -70.1919 164° South 459 528 38,000  Level Miami Center
10:40AM 21.5869 -70.1578 165° South 459 528 38,000  Level Miami Center
10:41AM 21.4644 -70.1239 166° South 459 528 38,000  Level Miami Center
10:42AM 21.3419 -70.0875 165° South 464 534 38,000  Level Miami Center
10:43AM 21.2364 -70.0550 164° South 457 526 38,000  Level Miami Center
10:44AM 21.1161 -70.0211 165° South 452 520 38,000  Level Miami Center
10:45AM 20.9936 -69.9875 166° South 452 520 38,000 -300 Level Miami Center
10:46AM 20.8753 -69.9511 164° South 452 520 37,400 -840 Descending Miami Center
10:47AM 20.7528 -69.9153 165° South 452 520 36,400 -960 Descending Miami Center
10:48AM 20.6303 -69.8794 165° South 452 520 35,500 -1,020 Descending Miami Center
10:49AM 20.5039 -69.8439 165° South 464 534 34,400 -1,020 Descending Miami Center
10:50AM 20.3814 -69.8103 166° South 464 534 33,500 -960 Descending Miami Center
10:51AM 20.2569 -69.7747 165° South 459 528 32,500 -1,680 Descending Miami Center
10:52AM 20.1283 -69.7417 166° South 464 534 30,200 -2,340 Descending Miami Center
10:54AM 19.9575 -69.6858 163° South  Level FlightAware Approximate
11:01AM 19.3337 -69.1002 137° Southeast  Level FlightAware Approximate
11:02AM 19.2471 -69.0136 137° Southeast  Level FlightAware Approximate
11:03AM 19.1604 -68.9270 137° Southeast  Level FlightAware Approximate
11:04AM 19.0702 -68.8447 140° Southeast  Level FlightAware Approximate
11:05AM 18.9796 -68.7629 137° Southeast  Level FlightAware Approximate
11:06AM 18.8931 -68.6764 137° Southeast  Level FlightAware Approximate
11:07AM 18.8039 -68.5930 140° Southeast  Level FlightAware Approximate
11:08AM 18.7124 -68.5124 137° Southeast  Level FlightAware Approximate
11:09AM 18.6234 -68.4312 128° Southeast  Level FlightAware Approximate
11:10AM 18.5674 -68.3634 90° East  Level Estimated
11:11AM 18.5674 -68.3634 90° East  Level Estimated
11:12AM 18.5674 -68.3634 90° East  Level Estimated
11:13AM 18.5674 -68.3634 90° East  Level Estimated
11:14AM 18.5674 -68.3634 90° East  Level Estimated
11:15AM 18.5674 -68.3634 90° East  Level Estimated
11:16AM 18.5674 -68.3634 90° East  Level Estimated
11:17AM 18.5674 -68.3634 90° East  Level Estimated